createdAt,value
2018-09-09T00:01:37.896Z,68.40
2018-09-09T00:04:06.204Z,68.50
2018-09-09T00:06:40.066Z,68.40
2018-09-09T00:09:16.724Z,68.30
2018-09-09T00:11:49.520Z,68.40
2018-09-09T00:14:22.280Z,68.40
2018-09-09T00:16:56.565Z,68.40
2018-09-09T00:19:29.259Z,68.50
2018-09-09T00:22:02.516Z,68.40
2018-09-09T00:24:35.519Z,68.50
2018-09-09T00:27:09.238Z,68.60
2018-09-09T00:29:42.295Z,68.80
2018-09-09T00:32:10.694Z,69.10
2018-09-09T00:34:39.039Z,69.30
2018-09-09T00:37:07.391Z,69.70
2018-09-09T00:39:35.696Z,70.10
2018-09-09T00:42:04.311Z,70.20
2018-09-09T00:44:32.604Z,70.20
2018-09-09T00:47:01.065Z,70.10
2018-09-09T00:49:35.014Z,70.30
2018-09-09T00:52:09.087Z,70.60
2018-09-09T00:54:37.403Z,70.70
2018-09-09T00:57:05.788Z,71.20
2018-09-09T00:59:34.094Z,71.70
2018-09-09T01:02:02.607Z,71.70
2018-09-09T01:04:30.877Z,71.90
2018-09-09T01:06:59.130Z,72.10
2018-09-09T01:09:31.474Z,72.30
2018-09-09T01:12:00.368Z,72.60
2018-09-09T01:14:28.685Z,72.80
2018-09-09T01:16:57.203Z,73.20
2018-09-09T01:19:25.526Z,74.10
2018-09-09T01:21:53.908Z,74.10
2018-09-09T01:24:22.456Z,74.00
2018-09-09T01:26:50.819Z,74.00
2018-09-09T01:29:19.083Z,74.30
2018-09-09T01:31:47.384Z,74.30
2018-09-09T01:34:15.628Z,74.10
2018-09-09T01:36:43.931Z,75.10
2018-09-09T01:39:12.195Z,74.40
2018-09-09T01:41:40.459Z,74.30
2018-09-09T01:44:08.703Z,74.20
2018-09-09T01:46:36.984Z,74.30
2018-09-09T01:49:05.437Z,74.30
2018-09-09T01:51:33.631Z,74.30
2018-09-09T01:54:01.904Z,74.40
2018-09-09T01:56:30.156Z,74.90
2018-09-09T01:58:58.447Z,75.10
2018-09-09T02:01:26.704Z,75.90
2018-09-09T02:03:55.024Z,75.10
2018-09-09T02:06:23.287Z,75.10
2018-09-09T02:08:51.527Z,75.00
2018-09-09T02:11:19.751Z,76.00
2018-09-09T02:13:48.003Z,75.50
2018-09-09T02:16:16.239Z,75.50
2018-09-09T02:18:44.487Z,75.30
2018-09-09T02:21:12.691Z,75.00
2018-09-09T02:23:40.954Z,74.80
2018-09-09T02:26:09.174Z,74.90
2018-09-09T02:28:37.401Z,75.00
2018-09-09T02:31:05.650Z,75.20
2018-09-09T02:33:33.926Z,75.40
2018-09-09T02:36:02.159Z,75.40
2018-09-09T02:38:30.384Z,75.60
2018-09-09T02:40:58.638Z,75.80
2018-09-09T02:43:26.911Z,75.90
2018-09-09T02:46:01.830Z,76.00
2018-09-09T02:48:30.135Z,76.00
2018-09-09T02:50:58.375Z,75.80
2018-09-09T02:53:26.647Z,75.80
2018-09-09T02:55:54.850Z,76.00
2018-09-09T02:58:23.100Z,76.30
2018-09-09T03:00:51.343Z,76.20
2018-09-09T03:03:19.551Z,76.60
2018-09-09T03:05:47.770Z,76.80
2018-09-09T03:08:15.979Z,76.90
2018-09-09T03:10:44.420Z,77.20
2018-09-09T03:13:12.640Z,77.30
2018-09-09T03:15:40.887Z,77.40
2018-09-09T03:18:09.095Z,77.40
2018-09-09T03:20:37.319Z,77.40
2018-09-09T03:23:05.541Z,77.60
2018-09-09T03:25:33.751Z,77.60
2018-09-09T03:28:02.015Z,77.60
2018-09-09T03:30:30.236Z,77.70
2018-09-09T03:32:58.440Z,77.90
2018-09-09T03:35:26.660Z,77.90
2018-09-09T03:37:54.915Z,78.00
2018-09-09T03:40:23.164Z,78.00
2018-09-09T03:42:51.407Z,77.80
2018-09-09T03:45:19.860Z,78.20
2018-09-09T03:47:48.124Z,78.00
2018-09-09T03:50:16.445Z,78.00
2018-09-09T03:52:44.684Z,78.30
2018-09-09T03:55:12.955Z,78.30
2018-09-09T03:57:41.191Z,78.40
2018-09-09T04:00:09.471Z,78.40
2018-09-09T04:02:37.679Z,78.20
2018-09-09T04:05:06.239Z,78.00
2018-09-09T04:07:34.563Z,77.80
2018-09-09T04:10:02.871Z,77.90
2018-09-09T04:12:31.151Z,78.10
2018-09-09T04:14:59.410Z,78.20
2018-09-09T04:17:27.644Z,78.20
2018-09-09T04:19:55.911Z,78.60
2018-09-09T04:22:24.216Z,78.40
2018-09-09T04:24:52.434Z,78.60
2018-09-09T04:27:20.663Z,78.70
2018-09-09T04:29:48.951Z,78.60
2018-09-09T04:32:17.215Z,79.00
2018-09-09T04:34:45.483Z,78.50
2018-09-09T04:37:13.901Z,78.50
2018-09-09T04:39:42.142Z,78.30
2018-09-09T04:42:10.384Z,78.40
2018-09-09T04:44:38.611Z,78.70
2018-09-09T04:47:06.821Z,79.00
2018-09-09T04:49:35.049Z,78.90
2018-09-09T04:52:03.680Z,78.90
2018-09-09T04:54:31.919Z,78.60
2018-09-09T04:57:00.188Z,78.40
2018-09-09T04:59:28.451Z,78.10
2018-09-09T05:01:56.691Z,78.20
2018-09-09T05:04:24.901Z,78.10
2018-09-09T05:06:53.131Z,78.20
2018-09-09T05:09:21.335Z,78.40
2018-09-09T05:11:49.584Z,78.50
2018-09-09T05:14:35.102Z,78.60
2018-09-09T05:17:03.851Z,78.30
2018-09-09T05:19:32.102Z,78.20
2018-09-09T05:22:00.412Z,78.00
2018-09-09T05:24:28.587Z,78.00
2018-09-09T05:26:56.826Z,78.00
2018-09-09T05:29:25.048Z,78.20
2018-09-09T05:31:53.343Z,78.30
2018-09-09T05:34:21.575Z,78.50
2018-09-09T05:36:49.878Z,78.50
2018-09-09T05:39:18.120Z,78.40
2018-09-09T05:41:46.372Z,78.90
2018-09-09T05:44:14.606Z,77.90
2018-09-09T05:46:42.842Z,78.00
2018-09-09T05:49:11.080Z,78.00
2018-09-09T05:51:39.319Z,78.10
2018-09-09T05:54:07.633Z,78.00
2018-09-09T05:56:35.904Z,77.90
2018-09-09T05:59:04.200Z,77.80
2018-09-09T06:01:32.570Z,78.80
2018-09-09T06:04:00.798Z,78.00
2018-09-09T06:06:29.075Z,78.40
2018-09-09T06:08:57.303Z,78.60
2018-09-09T06:11:25.547Z,79.20
2018-09-09T06:13:54.067Z,79.70
2018-09-09T06:16:22.311Z,80.20
2018-09-09T06:18:50.548Z,80.50
2018-09-09T06:21:18.817Z,80.60
2018-09-09T06:23:47.068Z,80.60
2018-09-09T06:26:15.299Z,81.60
2018-09-09T06:28:43.629Z,81.30
2018-09-09T06:31:11.848Z,81.80
2018-09-09T06:33:40.078Z,82.30
2018-09-09T06:36:08.312Z,82.70
2018-09-09T06:38:36.591Z,83.00
2018-09-09T06:41:05.091Z,83.60
2018-09-09T06:43:33.379Z,84.20
2018-09-09T06:46:01.611Z,84.60
2018-09-09T06:48:29.842Z,85.10
2018-09-09T06:50:58.131Z,85.60
2018-09-09T06:53:26.383Z,85.70
2018-09-09T06:55:54.655Z,85.70
2018-09-09T06:58:22.862Z,86.00
2018-09-09T07:00:51.792Z,86.00
2018-09-09T07:03:20.039Z,86.20
2018-09-09T07:05:48.345Z,86.70
2018-09-09T07:08:16.634Z,87.10
2018-09-09T07:10:44.934Z,87.90
2018-09-09T07:13:13.170Z,87.80
2018-09-09T07:15:41.414Z,87.50
2018-09-09T07:18:09.666Z,87.80
2018-09-09T07:20:37.894Z,87.90
2018-09-09T07:23:06.157Z,88.50
2018-09-09T07:25:34.428Z,88.60
2018-09-09T07:28:02.719Z,88.60
2018-09-09T07:30:31.088Z,89.00
2018-09-09T07:32:59.592Z,89.70
2018-09-09T07:35:28.068Z,89.30
2018-09-09T07:37:56.323Z,89.20
2018-09-09T07:40:24.731Z,89.30
2018-09-09T07:42:53.044Z,89.20
2018-09-09T07:45:21.378Z,89.10
2018-09-09T07:47:49.628Z,89.70
2018-09-09T07:50:17.884Z,89.70
2018-09-09T07:52:46.147Z,89.80
2018-09-09T07:55:14.398Z,90.00
2018-09-09T07:57:42.667Z,90.00
2018-09-09T08:00:10.945Z,90.00
2018-09-09T08:02:39.239Z,89.70
2018-09-09T08:05:07.482Z,89.00
2018-09-09T08:07:35.745Z,89.90
2018-09-09T08:10:04.081Z,89.80
2018-09-09T08:12:32.304Z,90.00
2018-09-09T08:15:09.084Z,89.60
2018-09-09T08:17:37.316Z,89.10
2018-09-09T08:20:05.592Z,88.20
2018-09-09T08:22:33.916Z,88.50
2018-09-09T08:25:02.245Z,88.50
2018-09-09T08:27:30.517Z,85.90
2018-09-09T08:29:58.763Z,84.40
2018-09-09T08:32:27.054Z,85.00
2018-09-09T08:34:55.594Z,85.20
2018-09-09T08:37:23.694Z,85.40
2018-09-09T08:39:52.035Z,84.50
2018-09-09T08:42:20.351Z,84.50
2018-09-09T08:44:48.680Z,84.50
2018-09-09T08:47:16.992Z,84.10
2018-09-09T08:49:45.311Z,82.90
2018-09-09T08:52:13.641Z,83.50
2018-09-09T08:54:41.968Z,83.00
2018-09-09T08:57:10.263Z,83.60
2018-09-09T08:59:38.535Z,83.80
2018-09-09T09:02:06.885Z,82.30
2018-09-09T09:04:35.569Z,81.30
2018-09-09T09:07:04.792Z,80.90
2018-09-09T09:09:33.115Z,79.70
2018-09-09T09:12:05.924Z,80.20
2018-09-09T09:15:11.497Z,80.20
2018-09-09T09:17:39.891Z,81.00
2018-09-09T09:20:08.584Z,80.70
2018-09-09T09:22:37.264Z,81.30
2018-09-09T09:25:05.967Z,77.80
2018-09-09T09:27:36.044Z,77.10
2018-09-09T09:30:04.718Z,74.80
2018-09-09T09:32:33.300Z,71.70
2018-09-09T09:35:01.955Z,68.00
2018-09-09T09:37:30.434Z,65.80
2018-09-09T09:39:59.234Z,63.20
2018-09-09T09:42:27.744Z,62.10
2018-09-09T09:44:56.507Z,60.50
2018-09-09T09:47:25.310Z,57.50
2018-09-09T09:49:54.249Z,58.30
2018-09-09T09:52:23.224Z,57.50
2018-09-09T09:54:52.144Z,57.70
2018-09-09T09:57:21.248Z,56.40
2018-09-09T09:59:50.163Z,53.40
2018-09-09T10:02:18.964Z,51.90
2018-09-09T10:04:48.011Z,51.40
2018-09-09T10:07:16.952Z,51.90
2018-09-09T10:09:45.972Z,51.60
2018-09-09T10:12:15.043Z,50.40
2018-09-09T10:17:50.272Z,50.40
2018-09-09T10:20:19.360Z,50.10
2018-09-09T10:22:48.433Z,49.90
2018-09-09T10:25:17.915Z,48.10
2018-09-09T10:27:46.934Z,46.80
2018-09-09T10:30:15.952Z,46.80
2018-09-09T10:32:44.967Z,48.10
2018-09-09T10:35:14.037Z,43.10
2018-09-09T10:37:43.084Z,42.90
2018-09-09T10:40:12.120Z,42.10
2018-09-09T10:42:41.247Z,37.80
2018-09-09T10:45:10.306Z,38.60
2018-09-09T10:47:39.459Z,36.10
2018-09-09T10:50:08.595Z,34.60
2018-09-09T10:52:37.666Z,33.50
2018-09-09T10:55:06.857Z,34.10
2018-09-09T10:57:36.012Z,32.40
2018-09-09T11:00:05.359Z,31.20
2018-09-09T11:02:34.404Z,31.90
2018-09-09T11:05:03.672Z,31.30
2018-09-09T11:07:32.838Z,31.20
2018-09-09T11:10:01.929Z,30.90
2018-09-09T11:12:31.712Z,30.10
2018-09-09T11:15:36.359Z,29.90
2018-09-09T11:18:05.589Z,29.70
2018-09-09T11:20:34.724Z,27.80
2018-09-09T11:23:03.820Z,28.10
2018-09-09T11:25:32.946Z,28.10
2018-09-09T11:28:02.037Z,27.30
2018-09-09T11:30:32.466Z,26.20
2018-09-09T11:33:01.571Z,27.30
2018-09-09T11:35:30.708Z,26.30
2018-09-09T11:37:59.841Z,26.30
2018-09-09T11:40:28.963Z,26.00
2018-09-09T11:42:58.073Z,25.80
2018-09-09T11:45:27.271Z,26.00
2018-09-09T11:47:56.499Z,25.80
2018-09-09T11:50:25.916Z,25.30
2018-09-09T11:52:55.144Z,24.70
2018-09-09T11:55:24.377Z,25.10
2018-09-09T11:57:53.711Z,24.50
2018-09-09T12:00:22.950Z,24.20
2018-09-09T12:02:52.086Z,25.00
2018-09-09T12:05:21.216Z,24.80
2018-09-09T12:07:50.332Z,24.70
2018-09-09T12:10:19.503Z,24.80
2018-09-09T12:12:48.646Z,24.80
2018-09-09T12:15:57.131Z,24.70
2018-09-09T12:18:26.246Z,24.90
2018-09-09T12:20:55.368Z,24.40
2018-09-09T12:23:24.483Z,24.70
2018-09-09T12:25:53.616Z,24.70
2018-09-09T12:28:22.756Z,24.70
2018-09-09T12:30:51.764Z,25.70
2018-09-09T12:33:20.896Z,25.70
2018-09-09T12:35:49.987Z,25.80
2018-09-09T12:38:19.094Z,25.20
2018-09-09T12:40:48.231Z,25.60
2018-09-09T12:43:22.604Z,25.40
2018-09-09T12:45:57.018Z,25.40
2018-09-09T12:48:31.233Z,25.70
2018-09-09T12:51:00.681Z,25.70
2018-09-09T12:53:29.827Z,24.90
2018-09-09T12:55:59.540Z,24.60
2018-09-09T12:58:28.720Z,24.60
2018-09-09T13:00:57.929Z,25.10
2018-09-09T13:03:27.174Z,24.90
2018-09-09T13:05:56.299Z,24.80
2018-09-09T13:08:25.387Z,25.00
2018-09-09T13:10:54.532Z,25.60
2018-09-09T13:13:23.567Z,25.50
2018-09-09T13:16:09.656Z,25.90
2018-09-09T13:18:38.742Z,25.80
2018-09-09T13:21:07.884Z,26.00
2018-09-09T13:23:37.011Z,26.00
2018-09-09T13:26:06.238Z,25.40
2018-09-09T13:28:35.284Z,25.20
2018-09-09T13:31:04.391Z,25.00
2018-09-09T13:33:33.485Z,25.30
2018-09-09T13:36:02.533Z,25.10
2018-09-09T13:38:31.627Z,24.20
2018-09-09T13:41:01.322Z,24.40
2018-09-09T13:43:30.395Z,24.10
2018-09-09T13:45:59.595Z,24.00
2018-09-09T13:48:28.756Z,23.90
2018-09-09T13:50:57.873Z,24.00
2018-09-09T13:53:27.001Z,24.60
2018-09-09T13:55:56.216Z,24.60
2018-09-09T13:58:25.511Z,24.70
2018-09-09T14:00:54.595Z,24.50
2018-09-09T14:03:23.700Z,25.00
2018-09-09T14:05:52.841Z,25.20
2018-09-09T14:08:22.030Z,25.30
2018-09-09T14:10:51.107Z,25.30
2018-09-09T14:13:20.217Z,25.70
2018-09-09T14:16:18.815Z,25.60
2018-09-09T14:18:47.879Z,25.80
2018-09-09T14:21:16.920Z,25.10
2018-09-09T14:23:46.143Z,24.60
2018-09-09T14:26:19.076Z,25.60
2018-09-09T14:28:48.132Z,25.30
2018-09-09T14:31:18.024Z,25.40
2018-09-09T14:33:47.111Z,25.30
2018-09-09T14:36:16.245Z,25.00
2018-09-09T14:38:45.343Z,25.60
2018-09-09T14:41:14.452Z,25.30
2018-09-09T14:43:43.589Z,24.90
2018-09-09T14:46:12.751Z,25.20
2018-09-09T14:48:41.856Z,24.10
2018-09-09T14:51:10.975Z,24.00
2018-09-09T14:53:40.177Z,25.10
2018-09-09T14:56:10.071Z,24.70
2018-09-09T14:58:39.225Z,24.50
2018-09-09T15:01:08.380Z,24.70
2018-09-09T15:03:37.515Z,24.60
2018-09-09T15:06:06.758Z,24.70
2018-09-09T15:08:35.792Z,25.40
2018-09-09T15:11:04.912Z,25.50
2018-09-09T15:13:34.070Z,25.70
2018-09-09T15:16:32.194Z,27.20
2018-09-09T15:19:01.240Z,27.80
2018-09-09T15:21:30.387Z,28.20
2018-09-09T15:23:59.482Z,28.80
2018-09-09T15:26:28.632Z,29.40
2018-09-09T15:28:57.774Z,29.30
2018-09-09T15:31:26.924Z,29.70
2018-09-09T15:33:55.995Z,29.80
2018-09-09T15:36:25.143Z,29.80
2018-09-09T15:38:54.274Z,30.00
2018-09-09T15:41:23.420Z,30.20
2018-09-09T15:43:53.167Z,30.70
2018-09-09T15:46:22.372Z,31.20
2018-09-09T15:48:51.487Z,31.30
2018-09-09T15:51:21.605Z,31.90
2018-09-09T15:53:50.679Z,33.50
2018-09-09T15:56:19.807Z,33.20
2018-09-09T15:58:48.888Z,33.90
2018-09-09T16:01:17.972Z,34.30
2018-09-09T16:03:47.080Z,35.00
2018-09-09T16:06:16.199Z,36.00
2018-09-09T16:08:45.295Z,36.20
2018-09-09T16:11:22.860Z,36.40
2018-09-09T16:13:51.956Z,36.70
2018-09-09T16:16:42.878Z,37.00
2018-09-09T16:19:11.972Z,36.90
2018-09-09T16:21:41.089Z,37.20
2018-09-09T16:24:10.173Z,37.90
2018-09-09T16:26:40.251Z,38.00
2018-09-09T16:29:09.387Z,38.30
2018-09-09T16:31:38.519Z,38.50
2018-09-09T16:34:07.611Z,38.80
2018-09-09T16:36:36.729Z,39.30
2018-09-09T16:39:07.419Z,39.80
2018-09-09T16:41:36.516Z,40.90
2018-09-09T16:44:06.765Z,41.00
2018-09-09T16:46:35.907Z,41.40
2018-09-09T16:49:05.107Z,41.40
2018-09-09T16:51:34.203Z,42.00
2018-09-09T16:54:03.299Z,42.50
2018-09-09T16:56:32.419Z,43.20
2018-09-09T16:59:01.498Z,43.60
2018-09-09T17:01:31.601Z,44.20
2018-09-09T17:04:00.761Z,44.70
2018-09-09T17:06:30.475Z,45.10
2018-09-09T17:08:59.629Z,45.40
2018-09-09T17:11:28.755Z,45.70
2018-09-09T17:13:58.801Z,46.30
2018-09-09T17:16:53.977Z,46.80
2018-09-09T17:19:23.708Z,46.90
2018-09-09T17:21:52.888Z,46.80
2018-09-09T17:24:22.023Z,46.60
2018-09-09T17:26:51.263Z,46.80
2018-09-09T17:29:20.388Z,47.00
2018-09-09T17:31:50.019Z,47.30
2018-09-09T17:34:19.599Z,47.90
2018-09-09T17:36:48.740Z,47.90
2018-09-09T17:39:18.053Z,48.40
2018-09-09T17:41:47.196Z,48.40
2018-09-09T17:44:16.354Z,48.50
2018-09-09T17:46:45.519Z,48.60
2018-09-09T17:49:14.616Z,48.50
2018-09-09T17:51:44.300Z,48.40
2018-09-09T17:54:13.444Z,48.70
2018-09-09T17:56:43.511Z,49.10
2018-09-09T17:59:12.630Z,49.10
2018-09-09T18:01:41.732Z,49.40
2018-09-09T18:04:11.458Z,49.50
2018-09-09T18:06:41.402Z,49.70
2018-09-09T18:09:10.752Z,50.10
2018-09-09T18:11:39.953Z,50.60
2018-09-09T18:14:15.294Z,50.40
2018-09-09T18:17:07.480Z,50.80
2018-09-09T18:19:36.604Z,51.00
2018-09-09T18:22:06.187Z,50.90
2018-09-09T18:24:35.303Z,51.00
2018-09-09T18:27:05.967Z,51.10
2018-09-09T18:29:35.187Z,51.10
2018-09-09T18:32:04.583Z,51.10
2018-09-09T18:34:33.747Z,51.10
2018-09-09T18:37:04.125Z,51.20
2018-09-09T18:39:33.240Z,51.30
2018-09-09T18:42:02.404Z,51.20
2018-09-09T18:44:32.427Z,51.50
2018-09-09T18:47:01.578Z,51.80
2018-09-09T18:49:30.731Z,51.60
2018-09-09T18:52:00.475Z,51.90
2018-09-09T18:54:30.572Z,52.10
2018-09-09T18:56:59.718Z,52.10
2018-09-09T18:59:28.931Z,51.70
2018-09-09T19:01:59.000Z,51.90
2018-09-09T19:04:28.134Z,52.10
2018-09-09T19:06:57.239Z,52.20
2018-09-09T19:09:26.354Z,52.00
2018-09-09T19:11:56.456Z,52.10
2018-09-09T19:14:51.691Z,52.20
2018-09-09T19:17:24.482Z,52.20
2018-09-09T19:19:54.437Z,52.30
2018-09-09T19:22:23.578Z,52.30
2018-09-09T19:24:52.749Z,52.40
2018-09-09T19:27:21.948Z,52.30
2018-09-09T19:29:51.155Z,52.30
2018-09-09T19:32:20.339Z,52.40
2018-09-09T19:34:49.474Z,52.50
2018-09-09T19:37:20.262Z,52.60
2018-09-09T19:39:51.270Z,52.90
2018-09-09T19:42:21.238Z,53.10
2018-09-09T19:44:50.391Z,52.80
2018-09-09T19:47:19.583Z,53.00
2018-09-09T19:49:48.704Z,53.30
2018-09-09T19:52:17.918Z,53.30
2018-09-09T19:54:47.071Z,53.20
2018-09-09T19:57:16.256Z,53.30
2018-09-09T19:59:45.412Z,53.60
2018-09-09T20:02:14.548Z,53.70
2018-09-09T20:04:43.729Z,54.40
2018-09-09T20:07:12.837Z,53.80
2018-09-09T20:09:41.955Z,53.90
2018-09-09T20:12:11.092Z,54.00
2018-09-09T20:15:12.885Z,54.10
2018-09-09T20:17:42.171Z,54.20
2018-09-09T20:20:11.308Z,54.30
2018-09-09T20:22:40.472Z,54.50
2018-09-09T20:25:09.604Z,54.50
2018-09-09T20:28:21.744Z,54.60
2018-09-09T20:30:50.896Z,54.80
2018-09-09T20:33:20.031Z,55.00
2018-09-09T20:35:49.167Z,55.50
2018-09-09T20:38:18.299Z,54.80
2018-09-09T20:40:54.517Z,54.90
2018-09-09T20:43:23.686Z,55.70
2018-09-09T20:45:52.809Z,56.20
2018-09-09T20:48:21.927Z,56.20
2018-09-09T20:50:51.107Z,56.00
2018-09-09T20:53:20.322Z,56.70
2018-09-09T20:55:49.416Z,56.60
2018-09-09T20:58:18.564Z,56.30
2018-09-09T21:00:47.701Z,56.20
2018-09-09T21:03:16.792Z,56.20
2018-09-09T21:05:45.856Z,56.20
2018-09-09T21:08:14.983Z,56.40
2018-09-09T21:10:44.095Z,56.70
2018-09-09T21:13:13.183Z,56.70
2018-09-09T21:19:15.223Z,56.70
2018-09-09T21:21:44.263Z,56.70
2018-09-09T21:24:13.282Z,56.80
2018-09-09T21:26:42.358Z,56.80
2018-09-09T21:29:11.404Z,56.80
2018-09-09T21:31:40.447Z,56.80
2018-09-09T21:34:09.523Z,56.90
2018-09-09T21:36:38.511Z,56.90
2018-09-09T21:39:09.707Z,56.80
2018-09-09T21:41:39.271Z,57.00
2018-09-09T21:44:08.507Z,57.30
2018-09-09T21:46:37.495Z,57.40
2018-09-09T21:49:06.635Z,57.50
2018-09-09T21:51:35.243Z,57.60
2018-09-09T21:54:04.073Z,57.80
2018-09-09T21:56:32.531Z,57.80
2018-09-09T21:59:00.834Z,57.90
2018-09-09T22:01:34.524Z,57.90
2018-09-09T22:04:02.892Z,58.00
2018-09-09T22:06:31.231Z,58.00
2018-09-09T22:08:59.559Z,58.10
2018-09-09T22:11:27.834Z,58.30
2018-09-09T22:13:56.193Z,58.40
2018-09-09T22:16:24.591Z,58.60
2018-09-09T22:18:52.911Z,59.00
2018-09-09T22:21:21.275Z,59.50
2018-09-09T22:23:49.698Z,59.50
2018-09-09T22:26:17.915Z,59.70
2018-09-09T22:28:46.976Z,59.90
2018-09-09T22:31:15.330Z,60.40
2018-09-09T22:33:43.659Z,60.10
2018-09-09T22:36:11.955Z,60.00
2018-09-09T22:38:40.215Z,60.00
2018-09-09T22:41:08.533Z,60.10
2018-09-09T22:43:36.871Z,60.10
2018-09-09T22:46:05.304Z,60.10
2018-09-09T22:48:33.706Z,60.00
2018-09-09T22:51:01.998Z,60.00
2018-09-09T22:53:30.335Z,60.30
2018-09-09T22:55:58.647Z,60.50
2018-09-09T22:58:26.959Z,60.60
2018-09-09T23:00:55.362Z,60.80
2018-09-09T23:03:23.695Z,61.00
2018-09-09T23:05:52.034Z,61.00
2018-09-09T23:08:20.355Z,61.00
2018-09-09T23:10:48.619Z,61.40
2018-09-09T23:13:16.876Z,62.60
2018-09-09T23:15:45.168Z,62.10
2018-09-09T23:18:13.531Z,62.30
2018-09-09T23:20:41.795Z,62.30
2018-09-09T23:23:10.047Z,62.40
2018-09-09T23:25:38.344Z,62.30
2018-09-09T23:28:06.692Z,62.70
2018-09-09T23:30:34.968Z,62.80
2018-09-09T23:33:03.255Z,62.80
2018-09-09T23:35:31.491Z,62.50
2018-09-09T23:37:59.746Z,62.30
2018-09-09T23:40:28.023Z,62.20
2018-09-09T23:42:56.343Z,62.20
2018-09-09T23:45:24.698Z,62.90
2018-09-09T23:47:52.999Z,63.50
2018-09-09T23:50:21.340Z,64.00
2018-09-09T23:52:49.597Z,64.00
2018-09-09T23:55:18.017Z,63.90
2018-09-09T23:57:46.359Z,63.90
